Time;durP1;ratioP1;P1;durP2;ratioP2;P2;SDS_P1;SDS_P2;PMS_P1;PMS_P2;Temp;Humidity;BMP_temperature;BMP_pressure;BME280_temperature;BME280_humidity;BME280_pressure;Samples;Min_cycle;Max_cycle;Signal;HPM_P1;HPM_P2
2022/07/13 00:00:39;;;;;;;0.40;0.30;;;;;;;19.12;75.22;95700.63;5133325;27;20419;-60
2022/07/13 00:03:08;;;;;;;0.40;0.20;;;;;;;19.06;76.16;95699.19;5133292;27;20461;-60
2022/07/13 00:05:37;;;;;;;0.40;0.20;;;;;;;18.45;77.67;95606.13;5132978;27;20484;-60
2022/07/13 00:08:06;;;;;;;0.50;0.40;;;;;;;19.03;73.97;95687.16;5133058;27;20505;-60
2022/07/13 00:10:36;;;;;;;0.40;0.30;;;;;;;18.82;79.53;95667.38;5133105;27;20426;-60
2022/07/13 00:13:04;;;;;;;0.40;0.20;;;;;;;18.92;82.88;95686.66;5132621;27;20835;-60
2022/07/13 00:15:33;;;;;;;0.40;0.30;;;;;;;18.50;77.46;95690.00;5132666;27;20577;-60
2022/07/13 00:18:03;;;;;;;0.40;0.20;;;;;;;18.67;78.44;95702.72;5133146;27;20430;-60
2022/07/13 00:20:32;;;;;;;0.40;0.20;;;;;;;18.32;75.13;95693.69;5132428;27;20432;-60
2022/07/13 00:23:00;;;;;;;0.40;0.20;;;;;;;18.36;80.66;95700.81;5132903;27;20462;-60
2022/07/13 00:25:29;;;;;;;0.50;0.30;;;;;;;18.31;80.07;95697.47;5133069;27;20462;-59
2022/07/13 00:27:58;;;;;;;0.53;0.30;;;;;;;17.90;87.23;95705.75;5132962;28;20427;-60
2022/07/13 00:30:29;;;;;;;0.40;0.20;;;;;;;18.42;93.52;95694.22;5132610;28;20821;-60
2022/07/13 00:32:58;;;;;;;0.40;0.20;;;;;;;18.46;80.32;95689.03;5132632;28;20430;-60
2022/07/13 00:35:26;;;;;;;0.40;0.20;;;;;;;18.29;78.75;95651.38;5132418;28;20557;-60
2022/07/13 00:37:55;;;;;;;0.40;0.30;;;;;;;18.10;77.15;95701.78;5132660;28;20883;-60
2022/07/13 00:40:23;;;;;;;0.40;0.30;;;;;;;18.39;79.89;95700.19;5132720;28;20422;-59
2022/07/13 00:42:52;;;;;;;0.40;0.20;;;;;;;17.92;81.47;95611.59;5132568;28;20429;-60
2022/07/13 00:45:22;;;;;;;0.40;0.20;;;;;;;18.61;80.05;95704.75;5132939;28;20449;-60
2022/07/13 00:47:51;;;;;;;0.53;0.30;;;;;;;18.63;79.72;95701.75;5132640;28;20514;-60
2022/07/13 00:50:19;;;;;;;0.40;0.30;;;;;;;18.53;73.95;95702.81;5132735;28;20506;-60
2022/07/13 00:52:48;;;;;;;0.40;0.30;;;;;;;18.08;77.79;95628.88;5132597;28;20462;-59
2022/07/13 00:55:17;;;;;;;0.40;0.20;;;;;;;18.56;77.44;95707.56;5132547;28;20456;-60
2022/07/13 00:57:46;;;;;;;0.50;0.40;;;;;;;18.61;81.38;95701.28;5134701;27;20517;-60
2022/07/13 01:00:15;;;;;;;0.40;0.20;;;;;;;18.62;76.68;95700.94;5136586;27;20874;-60
2022/07/13 01:02:47;;;;;;;0.50;0.40;;;;;;;18.42;79.16;95698.78;5136417;27;20924;-59
2022/07/13 01:05:16;;;;;;;0.40;0.30;;;;;;;17.79;79.79;95701.72;5136212;27;20438;-59
2022/07/13 01:07:46;;;;;;;0.40;0.30;;;;;;;17.94;81.04;95698.69;5136358;27;20858;-59
2022/07/13 01:10:14;;;;;;;0.40;0.20;;;;;;;18.06;81.07;95695.44;5136439;27;20513;-59
2022/07/13 01:12:43;;;;;;;0.40;0.20;;;;;;;17.90;84.44;95715.69;5136191;27;21148;-60
2022/07/13 01:15:11;;;;;;;0.90;0.63;;;;;;;17.57;79.81;95710.56;5135911;27;20907;-60
2022/07/13 01:17:40;;;;;;;0.40;0.20;;;;;;;17.34;85.54;95711.59;5136464;27;20788;-59
2022/07/13 01:20:11;;;;;;;0.40;0.20;;;;;;;17.34;82.75;95710.78;5136263;27;20458;-60
2022/07/13 01:22:43;;;;;;;0.40;0.20;;;;;;;17.87;81.83;95709.03;5136007;27;20479;-59
2022/07/13 01:25:15;;;;;;;0.50;0.30;;;;;;;18.14;77.85;95703.53;5135855;27;20486;-59
2022/07/13 01:27:46;;;;;;;0.40;0.23;;;;;;;18.22;74.44;95696.63;5135935;27;20422;-59
2022/07/13 01:30:27;;;;;;;0.40;0.20;;;;;;;17.94;69.94;95689.81;5136063;27;20491;-59
2022/07/13 01:32:56;;;;;;;0.40;0.20;;;;;;;17.62;72.41;95662.19;5135755;27;20450;-59
2022/07/13 01:35:35;;;;;;;0.40;0.20;;;;;;;17.86;75.30;95704.75;5135897;27;20771;-59
2022/07/13 01:38:04;;;;;;;0.40;0.30;;;;;;;17.01;74.42;95611.88;5135672;27;20513;-59
2022/07/13 01:40:34;;;;;;;0.50;0.30;;;;;;;17.05;78.55;95697.78;5135086;27;20479;-59
2022/07/13 01:43:05;;;;;;;0.50;0.30;;;;;;;16.34;84.26;95565.38;5135286;27;20482;-58
2022/07/13 01:45:33;;;;;;;0.40;0.30;;;;;;;17.60;86.85;95693.09;5135630;27;20882;-58
2022/07/13 01:48:01;;;;;;;0.40;0.20;;;;;;;17.95;85.30;95689.53;5136213;27;20506;-58
2022/07/13 01:50:32;;;;;;;0.40;0.20;;;;;;;18.05;78.76;95689.28;5135497;27;20470;-58
2022/07/13 01:53:01;;;;;;;0.40;0.20;;;;;;;18.13;79.51;95693.13;5135726;27;20418;-58
2022/07/13 01:55:29;;;;;;;0.60;0.40;;;;;;;18.14;75.42;95689.34;5135269;27;20562;-58
2022/07/13 01:58:00;;;;;;;0.40;0.30;;;;;;;18.18;77.57;95687.63;5135545;27;20513;-58
2022/07/13 02:00:29;;;;;;;0.40;0.40;;;;;;;17.94;74.28;95677.22;5134703;27;20518;-58
2022/07/13 02:02:58;;;;;;;0.40;0.20;;;;;;;17.44;76.09;95697.16;5135697;27;20439;-58
2022/07/13 02:08:35;;;;;;;0.40;0.20;;;;;;;17.01;82.74;95705.59;5133022;27;20828;-58
2022/07/13 02:11:34;;;;;;;0.40;0.20;;;;;;;17.19;83.49;95703.09;5130517;27;20487;-58
2022/07/13 02:21:29;;;;;;;0.40;0.30;;;;;;;17.78;82.22;95695.56;5124206;27;20484;-58
2022/07/13 02:23:58;;;;;;;0.40;0.20;;;;;;;17.78;80.24;95700.16;5134953;27;20505;-58
2022/07/13 02:26:26;;;;;;;0.40;0.20;;;;;;;17.67;84.63;95701.50;5135120;27;20839;-57
2022/07/13 02:28:57;;;;;;;0.40;0.30;;;;;;;17.55;86.23;95695.88;5134576;27;20454;-57
2022/07/13 02:31:26;;;;;;;0.40;0.20;;;;;;;17.59;83.77;95692.28;5134673;27;20479;-57
2022/07/13 02:34:17;;;;;;;0.40;0.20;;;;;;;17.69;84.88;95707.34;5135119;27;20981;-57
2022/07/13 02:36:47;;;;;;;0.60;0.30;;;;;;;16.59;86.56;95552.59;5134843;27;20486;-58
2022/07/13 02:39:16;;;;;;;0.40;0.20;;;;;;;17.14;82.82;95671.84;5134475;27;20432;-57
2022/07/13 02:41:44;;;;;;;0.40;0.30;;;;;;;17.33;81.79;95715.34;5134710;27;20506;-57
2022/07/13 02:47:35;;;;;;;0.40;0.20;;;;;;;16.84;86.92;95724.19;5127522;27;20466;-57
2022/07/13 02:50:07;;;;;;;0.40;0.20;;;;;;;16.68;91.12;95728.22;5134168;27;20450;-57
2022/07/13 02:52:37;;;;;;;0.50;0.30;;;;;;;16.60;89.35;95722.75;5134615;27;20422;-57
2022/07/13 02:55:06;;;;;;;0.40;0.30;;;;;;;17.02;88.51;95725.16;5134372;27;20458;-57
2022/07/13 02:57:35;;;;;;;0.40;0.30;;;;;;;16.70;87.04;95727.91;5134381;27;20897;-57
2022/07/13 03:00:04;;;;;;;0.70;0.50;;;;;;;16.46;88.22;95722.75;5134306;27;20509;-57
2022/07/13 03:02:32;;;;;;;0.40;0.20;;;;;;;16.49;90.59;95706.88;5134080;27;20454;-57
2022/07/13 03:05:01;;;;;;;0.40;0.30;;;;;;;16.68;98.10;95712.16;5134330;27;20427;-57
2022/07/13 03:07:30;;;;;;;0.40;0.30;;;;;;;17.13;92.23;95716.59;5134173;27;20475;-57
2022/07/13 03:10:01;;;;;;;0.40;0.20;;;;;;;17.15;87.81;95714.41;5134179;27;20495;-57
2022/07/13 03:12:29;;;;;;;0.40;0.30;;;;;;;17.29;92.17;95711.72;5134311;27;20431;-57
2022/07/13 03:14:57;;;;;;;0.40;0.20;;;;;;;17.51;91.03;95716.28;5133450;27;21000;-57
2022/07/13 03:17:32;;;;;;;0.40;0.30;;;;;;;17.36;89.86;95706.72;5134093;27;20557;-56
2022/07/13 03:20:16;;;;;;;0.40;0.20;;;;;;;17.60;91.50;95718.00;5133325;27;21002;-57
2022/07/13 03:22:45;;;;;;;0.40;0.30;;;;;;;17.42;90.53;95680.59;5134012;27;20504;-57
2022/07/13 03:25:15;;;;;;;0.40;0.30;;;;;;;17.67;89.72;95718.38;5133552;27;20501;-57
2022/07/13 03:27:50;;;;;;;0.40;0.30;;;;;;;17.68;88.89;95719.94;5133534;27;20472;-57
2022/07/13 03:30:19;;;;;;;0.40;0.20;;;;;;;17.77;88.75;95726.19;5133418;27;20462;-57
2022/07/13 03:32:48;;;;;;;0.40;0.20;;;;;;;17.72;87.69;95720.94;5133400;27;20928;-57
2022/07/13 03:35:16;;;;;;;0.50;0.30;;;;;;;17.62;84.29;95718.50;5133412;27;20489;-57
2022/07/13 03:37:44;;;;;;;0.40;0.20;;;;;;;17.69;90.24;95728.78;5133277;27;20732;-57
2022/07/13 03:40:15;;;;;;;0.40;0.20;;;;;;;17.72;81.49;95706.72;5133326;27;20458;-56
2022/07/13 03:42:44;;;;;;;0.40;0.20;;;;;;;17.76;78.23;95729.94;5133271;27;21070;-57
2022/07/13 03:47:54;;;;;;;0.40;0.20;;;;;;;17.32;83.15;95734.41;5133161;27;20407;-56
2022/07/13 03:50:23;;;;;;;0.40;0.30;;;;;;;17.06;87.00;95750.22;5133389;27;20435;-56
2022/07/13 03:52:51;;;;;;;0.50;0.30;;;;;;;17.21;86.81;95728.47;5133016;27;20882;-56
2022/07/13 03:55:21;;;;;;;0.40;0.33;;;;;;;17.36;85.55;95724.69;5132942;27;20434;-56
2022/07/13 03:57:50;;;;;;;0.50;0.40;;;;;;;17.23;84.25;95675.41;5133067;27;20573;-56
2022/07/13 04:00:18;;;;;;;0.40;0.20;;;;;;;17.65;85.04;95728.59;5132820;27;20426;-56
2022/07/13 04:02:47;;;;;;;0.40;0.20;;;;;;;17.59;88.65;95727.13;5132566;27;20868;-56
2022/07/13 04:05:15;;;;;;;0.40;0.30;;;;;;;17.37;93.62;95729.75;5132523;27;20442;-56
2022/07/13 04:07:44;;;;;;;0.40;0.30;;;;;;;17.10;99.57;95727.13;5133000;27;20430;-56
2022/07/13 04:10:12;;;;;;;0.40;0.20;;;;;;;17.10;100.00;95733.25;5133252;27;20858;-56
2022/07/13 04:12:43;;;;;;;0.40;0.30;;;;;;;17.33;95.87;95734.09;5132648;27;20426;-56
2022/07/13 04:15:12;;;;;;;0.50;0.30;;;;;;;17.37;92.85;95705.63;5132656;27;20491;-56
2022/07/13 04:17:40;;;;;;;0.40;0.30;;;;;;;17.64;92.11;95727.00;5133200;27;20458;-57
2022/07/13 04:20:10;;;;;;;0.40;0.20;;;;;;;17.58;92.06;95725.53;5132579;27;20433;-57
2022/07/13 04:22:39;;;;;;;0.40;0.20;;;;;;;17.67;92.49;95721.06;5133140;27;20466;-56
2022/07/13 04:25:08;;;;;;;0.40;0.20;;;;;;;17.77;94.71;95718.13;5132637;27;20454;-57
2022/07/13 04:27:36;;;;;;;0.40;0.20;;;;;;;17.97;91.02;95719.53;5132584;28;20466;-57
2022/07/13 04:30:07;;;;;;;0.43;0.43;;;;;;;18.04;86.26;95705.66;5132620;28;20839;-58
2022/07/13 04:32:40;;;;;;;0.40;0.30;;;;;;;17.48;92.43;95628.50;5131479;27;20450;-57
2022/07/13 04:35:12;;;;;;;0.60;0.57;;;;;;;17.67;91.27;95666.63;5132659;28;20457;-57
2022/07/13 04:37:41;;;;;;;0.40;0.20;;;;;;;18.02;84.22;95721.28;5132722;28;20537;-57
2022/07/13 04:40:10;;;;;;;0.40;0.20;;;;;;;18.07;84.78;95715.78;5132436;28;20430;-58
2022/07/13 04:42:38;;;;;;;0.40;0.20;;;;;;;18.21;90.24;95714.63;5131915;28;20509;-58
2022/07/13 04:45:09;;;;;;;0.40;0.30;;;;;;;18.31;87.64;95697.47;5132200;28;20461;-57
2022/07/13 04:47:38;;;;;;;0.40;0.30;;;;;;;18.43;83.52;95711.09;5132273;28;20427;-58
2022/07/13 04:50:09;;;;;;;0.40;0.30;;;;;;;18.52;83.96;95719.25;5132192;28;20434;-57
2022/07/13 04:52:39;;;;;;;0.40;0.20;;;;;;;18.52;81.99;95720.00;5114562;28;20429;-58
2022/07/13 04:55:11;;;;;;;0.40;0.20;;;;;;;18.32;79.04;95710.56;5132445;28;20487;-58
2022/07/13 04:57:40;;;;;;;0.40;0.30;;;;;;;18.70;79.32;95729.72;5132266;28;20466;-58
2022/07/13 05:00:17;;;;;;;1.03;0.57;;;;;;;18.62;88.89;95727.78;5132463;28;20431;-58
2022/07/13 05:02:46;;;;;;;0.67;0.40;;;;;;;18.55;89.25;95726.66;5132595;28;20430;-58
2022/07/13 05:05:21;;;;;;;0.50;0.40;;;;;;;18.88;81.43;95719.84;5132079;28;20423;-58
2022/07/13 05:07:55;;;;;;;0.40;0.20;;;;;;;19.02;78.30;95718.59;5130560;28;20434;-59
2022/07/13 05:10:28;;;;;;;0.40;0.20;;;;;;;19.15;78.41;95721.50;5132056;28;20444;-59
2022/07/13 05:13:02;;;;;;;3.27;1.13;;;;;;;19.35;80.47;95723.59;5131121;28;20944;-59
2022/07/13 05:15:56;;;;;;;0.47;0.43;;;;;;;19.36;81.85;95725.97;5132190;28;20546;-59
2022/07/13 05:18:24;;;;;;;0.40;0.30;;;;;;;17.35;88.44;95549.75;5131013;28;21028;-60
2022/07/13 05:20:54;;;;;;;0.60;0.40;;;;;;;18.05;100.00;95731.41;5132192;28;21102;-60
2022/07/13 05:23:22;;;;;;;0.40;0.40;;;;;;;17.25;100.00;95726.81;5131967;28;20423;-59
2022/07/13 05:25:51;;;;;;;0.50;0.30;;;;;;;17.66;100.00;95727.50;5132063;28;20423;-60
2022/07/13 05:28:19;;;;;;;0.40;0.30;;;;;;;17.84;100.00;95730.31;5132093;28;21088;-60
2022/07/13 05:30:48;;;;;;;0.40;0.30;;;;;;;17.70;100.00;95623.13;5132179;28;20533;-59
2022/07/13 05:33:19;;;;;;;0.87;0.40;;;;;;;19.06;100.00;95718.00;5131990;28;20430;-59
2022/07/13 05:35:48;;;;;;;0.40;0.20;;;;;;;18.81;89.96;95674.66;5131970;28;20940;-59
2022/07/13 05:38:16;;;;;;;0.87;0.87;;;;;;;19.29;95.56;95706.03;5132127;28;20581;-59
2022/07/13 05:40:44;;;;;;;0.40;0.30;;;;;;;19.05;100.00;95709.13;5132203;28;20508;-60
2022/07/13 05:43:13;;;;;;;0.40;0.30;;;;;;;18.44;100.00;95717.28;5132271;27;20466;-60
2022/07/13 05:45:42;;;;;;;0.53;0.37;;;;;;;18.36;100.00;95718.81;5135427;27;20947;-61
2022/07/13 05:48:10;;;;;;;0.40;0.30;;;;;;;18.35;100.00;95703.81;5135437;27;20944;-61
2022/07/13 05:50:41;;;;;;;0.40;0.30;;;;;;;18.43;100.00;95703.06;5135586;27;20406;-61
2022/07/13 05:53:10;;;;;;;0.50;0.33;;;;;;;18.86;100.00;95708.63;5135479;27;20465;-61
2022/07/13 05:55:38;;;;;;;0.50;0.30;;;;;;;19.52;96.16;95696.75;5135522;27;20470;-61
2022/07/13 05:58:06;;;;;;;0.73;0.73;;;;;;;19.36;94.24;95698.28;5135625;27;20476;-61
2022/07/13 06:00:35;;;;;;;0.50;0.40;;;;;;;19.71;93.08;95691.81;5135219;27;20435;-61
2022/07/13 06:03:03;;;;;;;0.83;0.50;;;;;;;19.98;88.79;95683.44;5135387;27;20426;-61
2022/07/13 06:05:32;;;;;;;0.40;0.20;;;;;;;20.30;85.08;95682.09;5134905;27;20522;-59
2022/07/13 06:08:01;;;;;;;0.40;0.30;;;;;;;20.63;81.91;95682.31;5134778;27;20427;-59
2022/07/13 06:10:30;;;;;;;0.70;0.40;;;;;;;20.18;87.28;95684.66;5136935;27;20517;-59
2022/07/13 06:13:00;;;;;;;0.57;0.57;;;;;;;20.19;87.84;95681.63;5134939;27;20487;-59
2022/07/13 06:15:28;;;;;;;0.60;0.60;;;;;;;20.26;85.06;95671.19;5134759;27;20472;-59
2022/07/13 06:17:56;;;;;;;0.47;0.33;;;;;;;20.97;78.83;95668.69;5134655;27;20458;-59
2022/07/13 06:20:25;;;;;;;0.43;0.30;;;;;;;21.18;75.48;95628.28;5134644;27;20912;-59
2022/07/13 06:25:37;;;;;;;0.40;0.30;;;;;;;21.69;73.05;95667.53;5134593;27;20501;-59
2022/07/13 06:28:06;;;;;;;0.50;0.30;;;;;;;21.03;78.15;95667.34;5134349;27;20963;-59
2022/07/13 06:30:35;;;;;;;0.50;0.33;;;;;;;20.36;81.32;95599.28;5134483;27;20464;-59
2022/07/13 06:33:04;;;;;;;0.50;0.37;;;;;;;20.72;79.13;95613.81;5134449;27;20502;-59
2022/07/13 06:35:33;;;;;;;0.50;0.30;;;;;;;21.87;80.26;95658.19;5134540;27;20426;-59
2022/07/13 06:38:01;;;;;;;0.40;0.30;;;;;;;22.19;71.93;95660.09;5134728;27;20563;-59
2022/07/13 06:40:30;;;;;;;0.40;0.30;;;;;;;22.62;68.59;95651.50;5134741;27;20498;-59
2022/07/13 06:43:00;;;;;;;0.40;0.20;;;;;;;23.49;63.12;95649.97;5134380;27;20427;-59
2022/07/13 06:45:29;;;;;;;0.50;0.37;;;;;;;23.33;61.46;95643.66;5134369;27;20454;-60
2022/07/13 06:47:57;;;;;;;0.40;0.30;;;;;;;23.06;64.88;95650.59;5134684;27;20430;-59
2022/07/13 06:50:26;;;;;;;1.30;0.50;;;;;;;23.31;60.24;95654.03;5134584;27;20418;-59
2022/07/13 06:52:54;;;;;;;0.80;0.40;;;;;;;24.07;58.14;95653.13;5134465;27;20527;-59
2022/07/13 06:55:23;;;;;;;0.40;0.30;;;;;;;23.50;59.58;95653.47;5134298;27;20441;-59
2022/07/13 06:57:52;;;;;;;0.50;0.30;;;;;;;23.68;60.23;95641.25;5134045;27;20427;-62
2022/07/13 07:00:22;;;;;;;0.50;0.30;;;;;;;23.61;59.72;95647.22;5134007;27;20902;-59
2022/07/13 07:02:50;;;;;;;0.40;0.30;;;;;;;23.71;56.74;95649.44;5134270;27;20968;-59
2022/07/13 07:05:20;;;;;;;0.40;0.30;;;;;;;24.07;57.97;95645.78;5134017;27;20767;-59
2022/07/13 07:07:48;;;;;;;0.50;0.40;;;;;;;24.06;57.18;95648.84;5134143;27;20460;-59
2022/07/13 07:10:17;;;;;;;0.50;0.40;;;;;;;23.89;57.67;95639.91;5133841;27;20517;-58
2022/07/13 07:12:45;;;;;;;0.40;0.30;;;;;;;24.62;57.26;95640.25;5133446;27;20450;-58
2022/07/13 07:15:14;;;;;;;0.40;0.30;;;;;;;25.57;54.31;95639.00;5133137;27;20466;-58
2022/07/13 07:17:48;;;;;;;0.40;0.30;;;;;;;25.84;50.18;95634.47;5133910;27;20431;-57
2022/07/13 07:20:18;;;;;;;0.40;0.30;;;;;;;26.10;52.66;95636.53;5133520;27;20901;-57
2022/07/13 07:22:47;;;;;;;0.60;0.50;;;;;;;25.55;52.35;95624.97;5132220;27;20435;-57
2022/07/13 07:25:16;;;;;;;0.50;0.40;;;;;;;25.17;50.50;95633.81;5133093;27;21018;-57
2022/07/13 07:27:44;;;;;;;0.40;0.30;;;;;;;25.91;48.89;95626.47;5132468;27;20985;-58
2022/07/13 07:30:13;;;;;;;0.40;0.30;;;;;;;25.81;48.32;95619.69;5133479;27;20480;-59
2022/07/13 07:32:42;;;;;;;0.40;0.30;;;;;;;26.04;51.01;95613.50;5133714;27;20604;-59
2022/07/13 07:35:12;;;;;;;0.50;0.50;;;;;;;26.33;51.23;95616.41;5133656;27;20921;-60
2022/07/13 07:37:40;;;;;;;0.57;0.30;;;;;;;26.15;44.38;95614.53;5133214;27;20458;-60
2022/07/13 07:40:10;;;;;;;0.80;0.40;;;;;;;25.80;42.51;95611.91;5133528;27;20465;-60
2022/07/13 07:42:39;;;;;;;0.40;0.30;;;;;;;25.61;44.28;95612.69;5133543;27;20487;-60
2022/07/13 07:45:09;;;;;;;0.30;0.30;;;;;;;26.56;43.76;95597.38;5133355;27;20875;-60
2022/07/13 07:47:37;;;;;;;3.30;0.63;;;;;;;26.98;34.22;95591.81;5133141;27;20422;-61
2022/07/13 07:50:08;;;;;;;0.40;0.30;;;;;;;26.87;33.32;95596.31;5133641;27;20499;-61
2022/07/13 07:52:38;;;;;;;0.40;0.20;;;;;;;27.03;30.82;95602.38;5133244;27;20941;-62
2022/07/13 07:55:24;;;;;;;0.40;0.30;;;;;;;27.40;30.54;95597.09;5133201;27;21100;-62
2022/07/13 07:57:53;;;;;;;0.30;0.30;;;;;;;27.67;35.90;95596.66;5133492;27;20858;-63
2022/07/13 08:00:22;;;;;;;0.40;0.30;;;;;;;28.22;33.43;95592.22;5133257;27;20873;-63
2022/07/13 08:02:51;;;;;;;0.50;0.50;;;;;;;27.80;30.67;95588.25;5133284;27;20458;-62
2022/07/13 08:05:20;;;;;;;0.30;0.20;;;;;;;28.26;32.66;95581.31;5132896;27;21021;-61
2022/07/13 08:07:50;;;;;;;0.40;0.30;;;;;;;28.11;30.98;95579.63;5132072;27;20519;-61
2022/07/13 08:10:19;;;;;;;0.40;0.30;;;;;;;28.16;31.91;95582.78;5132616;27;20932;-61
2022/07/13 08:12:56;;;;;;;0.30;0.30;;;;;;;28.21;30.24;95587.13;5132755;27;20790;-61
2022/07/13 08:15:25;;;;;;;0.30;0.20;;;;;;;28.50;27.54;95575.31;5132680;27;20462;-61
2022/07/13 08:17:54;;;;;;;0.40;0.30;;;;;;;28.89;28.17;95579.13;5132781;27;20513;-60
2022/07/13 08:20:22;;;;;;;0.30;0.20;;;;;;;28.77;25.44;95570.47;5132434;27;20474;-60
2022/07/13 08:22:52;;;;;;;0.40;0.30;;;;;;;28.92;27.46;95581.09;5133852;27;20467;-59
2022/07/13 08:25:22;;;;;;;0.40;0.30;;;;;;;29.09;29.36;95584.34;5133189;27;20435;-59
2022/07/13 08:27:51;;;;;;;0.30;0.20;;;;;;;28.33;27.05;95579.44;5132515;27;20431;-59
2022/07/13 08:30:20;;;;;;;0.30;0.20;;;;;;;28.53;28.94;95581.97;5132385;28;20462;-59
2022/07/13 08:32:48;;;;;;;0.30;0.20;;;;;;;29.24;24.44;95575.88;5132577;28;20449;-59
2022/07/13 08:40:50;;;;;;;0.40;0.30;;;;;;;29.86;25.76;95575.75;5132269;28;20478;-58
2022/07/13 08:43:20;;;;;;;0.30;0.20;;;;;;;30.46;23.69;95570.44;5132421;28;20496;-59
2022/07/13 08:45:48;;;;;;;0.30;0.30;;;;;;;30.57;24.34;95563.00;5132417;28;20892;-59
2022/07/13 08:48:26;;;;;;;0.30;0.20;;;;;;;30.99;25.37;95568.47;5130921;28;20459;-58
2022/07/13 08:50:55;;;;;;;0.30;0.20;;;;;;;30.61;26.23;95569.25;5131834;28;20433;-58
2022/07/13 08:53:25;;;;;;;0.40;0.30;;;;;;;30.86;26.86;95570.03;5131936;28;20434;-57
2022/07/13 08:55:56;;;;;;;0.33;0.27;;;;;;;30.88;28.14;95564.16;5132238;28;20939;-57
2022/07/13 08:58:26;;;;;;;0.30;0.30;;;;;;;30.53;28.12;95567.69;5132085;28;20542;-57
2022/07/13 09:00:54;;;;;;;0.30;0.30;;;;;;;30.51;25.58;95553.63;5131756;28;20473;-58
2022/07/13 09:03:23;;;;;;;0.40;0.30;;;;;;;31.43;26.64;95554.25;5132199;28;20432;-57
2022/07/13 09:05:51;;;;;;;0.30;0.20;;;;;;;31.88;23.38;95558.75;5132548;28;20485;-57
2022/07/13 09:08:21;;;;;;;0.30;0.20;;;;;;;32.20;23.54;95553.13;5132165;28;20954;-57
2022/07/13 09:10:56;;;;;;;0.30;0.30;;;;;;;32.29;25.68;95544.44;5132206;28;20420;-58
2022/07/13 09:13:39;;;;;;;0.30;0.20;;;;;;;32.30;22.83;95555.00;5131918;28;20943;-58
2022/07/13 09:16:19;;;;;;;0.40;0.30;;;;;;;32.13;23.69;95539.44;5131999;28;20489;-58
2022/07/13 09:18:50;;;;;;;0.40;0.30;;;;;;;31.96;23.26;95552.06;5134387;27;20994;-57
2022/07/13 09:21:19;;;;;;;0.40;0.30;;;;;;;32.57;24.05;95538.75;5136239;27;20527;-58
2022/07/13 09:23:49;;;;;;;0.40;0.30;;;;;;;32.02;22.45;95546.97;5135886;27;20428;-57
2022/07/13 09:26:21;;;;;;;0.30;0.20;;;;;;;32.10;22.86;95544.97;5136156;27;20441;-57
2022/07/13 09:28:51;;;;;;;0.40;0.30;;;;;;;31.48;21.93;95525.69;5135755;27;20443;-57
2022/07/13 09:31:20;;;;;;;0.30;0.30;;;;;;;31.87;22.89;95546.25;5136054;27;20512;-57
2022/07/13 09:33:49;;;;;;;0.40;0.30;;;;;;;32.34;23.33;95539.28;5136100;27;20504;-58
2022/07/13 09:36:22;;;;;;;0.40;0.30;;;;;;;32.33;23.90;95543.25;5136146;27;20503;-57
2022/07/13 09:38:52;;;;;;;0.30;0.30;;;;;;;32.17;23.74;95545.69;5135749;27;20938;-58
2022/07/13 09:41:24;;;;;;;0.30;0.30;;;;;;;31.55;23.43;95544.84;5135887;27;20543;-58
2022/07/13 09:46:55;;;;;;;0.30;0.30;;;;;;;29.73;27.74;95530.81;5135486;27;20432;-58
2022/07/13 09:49:33;;;;;;;0.57;0.57;;;;;;;29.84;25.23;95551.56;5135377;27;20447;-57
2022/07/13 09:52:05;;;;;;;0.43;0.30;;;;;;;29.83;23.74;95552.72;5135682;27;20427;-57
2022/07/13 09:54:35;;;;;;;0.50;0.37;;;;;;;30.84;24.06;95550.44;5135369;27;20433;-57
2022/07/13 09:57:08;;;;;;;0.30;0.20;;;;;;;29.97;24.35;95539.09;5135880;27;20504;-59
2022/07/13 09:59:38;;;;;;;0.30;0.30;;;;;;;30.77;25.13;95545.78;5135360;27;20426;-57
2022/07/13 10:02:07;;;;;;;0.30;0.20;;;;;;;31.33;23.79;95535.88;5134667;27;20473;-58
2022/07/13 10:04:36;;;;;;;0.50;0.43;;;;;;;31.25;22.86;95537.88;5134947;27;20480;-58
2022/07/13 10:07:17;;;;;;;0.33;0.27;;;;;;;32.30;24.68;95535.03;5135472;27;20416;-58
2022/07/13 10:09:46;;;;;;;0.30;0.30;;;;;;;32.29;25.86;95541.69;5134887;27;20439;-58
2022/07/13 10:12:16;;;;;;;0.30;0.20;;;;;;;30.35;25.34;95553.22;5135345;27;20765;-57
2022/07/13 10:14:47;;;;;;;0.57;0.57;;;;;;;30.06;24.75;95539.50;5134790;27;20477;-57
2022/07/13 10:17:22;;;;;;;0.30;0.20;;;;;;;29.72;24.68;95510.91;5134932;27;20422;-57
2022/07/13 10:20:00;;;;;;;0.30;0.20;;;;;;;29.71;25.45;95542.13;5135067;27;20424;-57
2022/07/13 10:22:32;;;;;;;0.30;0.20;;;;;;;29.71;26.26;95544.84;5134787;27;20427;-57
2022/07/13 10:25:01;;;;;;;0.30;0.20;;;;;;;30.16;25.13;95538.72;5134596;27;20442;-57
2022/07/13 10:27:33;;;;;;;0.40;0.30;;;;;;;30.14;25.07;95541.06;5135128;27;20839;-56
2022/07/13 10:30:05;;;;;;;0.30;0.20;;;;;;;30.26;26.49;95536.41;5134109;27;20434;-57
2022/07/13 10:32:34;;;;;;;0.30;0.20;;;;;;;31.26;27.35;95528.50;5133624;27;20427;-57
2022/07/13 10:35:06;;;;;;;0.30;0.30;;;;;;;31.79;25.52;95522.00;5133810;27;20426;-57
2022/07/13 10:38:12;;;;;;;0.50;0.40;;;;;;;32.13;26.17;95517.50;5134542;27;20419;-57
2022/07/13 10:40:40;;;;;;;0.33;0.23;;;;;;;32.17;26.28;95525.72;5134500;27;20464;-57
2022/07/13 10:43:19;;;;;;;0.40;0.40;;;;;;;31.06;24.68;95507.44;5134499;27;20433;-57
2022/07/13 10:45:51;;;;;;;0.30;0.20;;;;;;;31.02;24.13;95509.41;5134876;27;20424;-58
2022/07/13 10:48:45;;;;;;;0.30;0.20;;;;;;;31.07;25.92;95509.00;5134575;27;20510;-57
2022/07/13 10:51:23;;;;;;;0.40;0.30;;;;;;;31.07;27.90;95507.03;5134207;27;20902;-57
2022/07/13 10:54:11;;;;;;;0.30;0.20;;;;;;;31.83;23.80;95500.81;5134272;27;20423;-58
2022/07/13 10:57:13;;;;;;;0.30;0.30;;;;;;;33.19;25.84;95497.38;5134584;27;20516;-58
2022/07/13 10:59:50;;;;;;;0.37;0.27;;;;;;;31.99;22.71;95493.72;5133211;27;21000;-58
2022/07/13 11:02:45;;;;;;;0.30;0.20;;;;;;;32.19;22.97;95496.69;5133887;27;20462;-58
2022/07/13 11:05:14;;;;;;;0.30;0.20;;;;;;;31.55;23.85;95495.53;5134358;27;20426;-58
2022/07/13 11:07:45;;;;;;;0.30;0.30;;;;;;;32.88;24.42;95492.97;5134007;27;21039;-58
2022/07/13 11:10:25;;;;;;;0.40;0.33;;;;;;;33.02;24.02;95487.31;5133824;27;20434;-58
2022/07/13 11:13:03;;;;;;;0.37;0.27;;;;;;;33.61;22.69;95485.09;5133788;27;20438;-58
2022/07/13 11:15:50;;;;;;;0.60;0.60;;;;;;;33.39;23.65;95439.81;5133719;27;20534;-58
2022/07/13 11:18:27;;;;;;;0.30;0.20;;;;;;;32.83;23.71;95487.94;5133635;27;20435;-58
2022/07/13 11:20:57;;;;;;;0.30;0.30;;;;;;;32.81;23.46;95487.56;5133587;27;20474;-58
2022/07/13 11:26:19;;;;;;;0.47;0.33;;;;;;;33.07;23.24;95445.69;5132949;27;20449;-57
2022/07/13 11:28:55;;;;;;;0.30;0.20;;;;;;;31.54;24.75;95488.47;5133605;27;20540;-57
2022/07/13 11:31:25;;;;;;;0.30;0.20;;;;;;;29.67;25.35;95492.16;5133481;27;20436;-57
2022/07/13 11:33:54;;;;;;;0.30;0.30;;;;;;;30.39;25.39;95491.88;5133717;27;20953;-57
2022/07/13 11:36:24;;;;;;;0.30;0.20;;;;;;;31.37;23.48;95485.38;5133418;27;20418;-57
2022/07/13 11:39:00;;;;;;;0.30;0.30;;;;;;;32.19;22.68;95485.72;5133248;27;20465;-57
2022/07/13 11:41:29;;;;;;;0.30;0.20;;;;;;;32.15;23.08;95479.50;5133342;27;20465;-57
2022/07/13 11:43:57;;;;;;;0.40;0.30;;;;;;;32.15;23.90;95481.47;5133178;27;20438;-57
2022/07/13 11:46:28;;;;;;;0.40;0.30;;;;;;;31.04;23.79;95387.38;5133179;27;20425;-57
2022/07/13 11:49:02;;;;;;;0.40;0.40;;;;;;;31.86;22.82;95478.09;5132197;27;20435;-57
2022/07/13 11:51:31;;;;;;;0.30;0.20;;;;;;;32.93;24.18;95473.31;5133038;27;20430;-57
2022/07/13 11:54:07;;;;;;;0.40;0.30;;;;;;;32.62;22.57;95465.00;5133089;27;20423;-57
2022/07/13 11:56:36;;;;;;;0.30;0.20;;;;;;;32.77;24.64;95473.06;5132992;27;20521;-57
2022/07/13 11:59:05;;;;;;;0.40;0.30;;;;;;;33.22;26.27;95472.59;5133016;27;20428;-57
2022/07/13 12:01:34;;;;;;;0.40;0.30;;;;;;;32.50;22.42;95470.19;5132883;27;20992;-57
2022/07/13 12:04:05;;;;;;;0.30;0.20;;;;;;;33.35;21.74;95461.81;5133005;27;20429;-57
2022/07/13 12:06:33;;;;;;;0.40;0.20;;;;;;;32.73;21.85;95461.38;5132857;27;20435;-57
2022/07/13 12:09:02;;;;;;;0.30;0.30;;;;;;;31.88;23.70;95459.28;5132857;27;20437;-57
2022/07/13 12:11:31;;;;;;;0.40;0.30;;;;;;;32.52;23.50;95454.91;5132852;27;20802;-57
2022/07/13 12:14:00;;;;;;;0.33;0.30;;;;;;;33.17;22.44;95458.53;5132707;27;20486;-58
2022/07/13 12:16:28;;;;;;;0.50;0.30;;;;;;;32.66;22.67;95447.72;5133138;27;20444;-57
2022/07/13 12:19:04;;;;;;;0.30;0.20;;;;;;;31.11;21.87;95368.16;5133106;27;20453;-57
2022/07/13 12:21:33;;;;;;;0.40;0.30;;;;;;;32.76;24.17;95446.81;5132589;27;20467;-57